Wetterdaten: Freitag, 22.10.2010
Datum Zeit Temp. A. Feuchte A. Luftdruck Regen Wind Richtung Richtung Sonnenschein UV Solar Windben
22.10.2010 00:00 4,3 C 73 % 1020,4 hPa 0,0 mm 3,2 km/h (1 Bft) SW 225 0 min 0 UV-I 0 W/m 9,7 km/h (2 Bft)
22.10.2010 00:10 4,3 C 74 % 1020,3 hPa 0,0 mm 3,2 km/h (1 Bft) S-SW 202 0 min 0 UV-I 0 W/m 14,5 km/h (3 Bft)
22.10.2010 00:20 4,3 C 74 % 1020,2 hPa 0,0 mm 1,6 km/h (1 Bft) SW 225 0 min 0 UV-I 0 W/m 9,7 km/h (2 Bft)
22.10.2010 00:30 4,2 C 74 % 1020,2 hPa 0,0 mm 1,6 km/h (1 Bft) SW 225 0 min 0 UV-I 0 W/m 11,3 km/h (2 Bft)
22.10.2010 00:40 4,2 C 74 % 1020,0 hPa 0,0 mm 3,2 km/h (1 Bft) S-SW 202 0 min 0 UV-I 0 W/m 9,7 km/h (2 Bft)
22.10.2010 00:50 4,2 C 74 % 1020,0 hPa 0,0 mm 1,6 km/h (1 Bft) S-SW 202 0 min 0 UV-I 0 W/m 8,0 km/h (2 Bft)
22.10.2010 01:00 4,1 C 74 % 1019,9 hPa 0,0 mm 1,6 km/h (1 Bft) S-SW 202 0 min 0 UV-I 0 W/m 9,7 km/h (2 Bft)
22.10.2010 01:10 4,1 C 74 % 1019,8 hPa 0,0 mm 3,2 km/h (1 Bft) SW 225 0 min 0 UV-I 0 W/m 11,3 km/h (2 Bft)
22.10.2010 01:20 4,1 C 74 % 1019,7 hPa 0,0 mm 4,8 km/h (1 Bft) SW 225 0 min 0 UV-I 0 W/m 16,1 km/h (3 Bft)
22.10.2010 01:30 4,2 C 74 % 1019,6 hPa 0,0 mm 4,8 km/h (1 Bft) SW 225 0 min 0 UV-I 0 W/m 16,1 km/h (3 Bft)
22.10.2010 01:40 4,3 C 73 % 1019,4 hPa 0,0 mm 4,8 km/h (1 Bft) SW 225 0 min 0 UV-I 0 W/m 16,1 km/h (3 Bft)
22.10.2010 01:50 4,3 C 73 % 1019,2 hPa 0,0 mm 6,4 km/h (2 Bft) SW 225 0 min 0 UV-I 0 W/m 20,9 km/h (4 Bft)
22.10.2010 02:00 4,4 C 73 % 1019,2 hPa 0,0 mm 6,4 km/h (2 Bft) SW 225 0 min 0 UV-I 0 W/m 24,1 km/h (4 Bft)
22.10.2010 02:10 4,6 C 72 % 1019,2 hPa 0,0 mm 6,4 km/h (2 Bft) W-SW 247 0 min 0 UV-I 0 W/m 22,5 km/h (4 Bft)
22.10.2010 02:20 4,7 C 72 % 1019,1 hPa 0,0 mm 6,4 km/h (2 Bft) SW 225 0 min 0 UV-I 0 W/m 22,5 km/h (4 Bft)
22.10.2010 02:30 4,8 C 72 % 1019,0 hPa 0,0 mm 8,0 km/h (2 Bft) SW 225 0 min 0 UV-I 0 W/m 22,5 km/h (4 Bft)
22.10.2010 02:40 4,9 C 72 % 1018,9 hPa 0,0 mm 4,8 km/h (1 Bft) SW 225 0 min 0 UV-I 0 W/m 19,3 km/h (3 Bft)
22.10.2010 02:50 4,9 C 72 % 1018,8 hPa 0,0 mm 4,8 km/h (1 Bft) SW 225 0 min 0 UV-I 0 W/m 22,5 km/h (4 Bft)
22.10.2010 03:00 4,9 C 73 % 1018,7 hPa 0,0 mm 4,8 km/h (1 Bft) SW 225 0 min 0 UV-I 0 W/m 16,1 km/h (3 Bft)
22.10.2010 03:10 4,9 C 73 % 1018,7 hPa 0,0 mm 4,8 km/h (1 Bft) W 270 0 min 0 UV-I 0 W/m 11,3 km/h (2 Bft)
22.10.2010 03:20 4,9 C 73 % 1018,6 hPa 0,0 mm 4,8 km/h (1 Bft) SW 225 0 min 0 UV-I 0 W/m 16,1 km/h (3 Bft)
22.10.2010 03:30 4,9 C 74 % 1018,4 hPa 0,0 mm 4,8 km/h (1 Bft) W-SW 247 0 min 0 UV-I 0 W/m 16,1 km/h (3 Bft)
22.10.2010 03:40 4,9 C 74 % 1018,4 hPa 0,0 mm 6,4 km/h (2 Bft) W 270 0 min 0 UV-I 0 W/m 17,7 km/h (3 Bft)
22.10.2010 03:50 4,9 C 74 % 1018,3 hPa 0,0 mm 4,8 km/h (1 Bft) W-SW 247 0 min 0 UV-I 0 W/m 19,3 km/h (3 Bft)
22.10.2010 04:00 5,0 C 74 % 1018,3 hPa 0,0 mm 4,8 km/h (1 Bft) S-SW 202 0 min 0 UV-I 0 W/m 11,3 km/h (2 Bft)
22.10.2010 04:10 5,1 C 74 % 1018,1 hPa 0,0 mm 4,8 km/h (1 Bft) SW 225 0 min 0 UV-I 0 W/m 14,5 km/h (3 Bft)
22.10.2010 04:20 5,1 C 74 % 1018,0 hPa 0,0 mm 4,8 km/h (1 Bft) SW 225 0 min 0 UV-I 0 W/m 16,1 km/h (3 Bft)
22.10.2010 04:30 5,2 C 74 % 1017,7 hPa 0,0 mm 4,8 km/h (1 Bft) S-SW 202 0 min 0 UV-I 0 W/m 17,7 km/h (3 Bft)
22.10.2010 04:40 5,3 C 74 % 1017,7 hPa 0,0 mm 4,8 km/h (1 Bft) SW 225 0 min 0 UV-I 0 W/m 16,1 km/h (3 Bft)
22.10.2010 04:50 5,4 C 74 % 1017,7 hPa 0,0 mm 4,8 km/h (1 Bft) S-SW 202 0 min 0 UV-I 0 W/m 17,7 km/h (3 Bft)
22.10.2010 05:00 5,4 C 74 % 1017,7 hPa 0,0 mm 4,8 km/h (1 Bft) W-SW 247 0 min 0 UV-I 0 W/m 16,1 km/h (3 Bft)
22.10.2010 05:10 5,6 C 74 % 1017,6 hPa 0,0 mm 4,8 km/h (1 Bft) SW 225 0 min 0 UV-I 0 W/m 19,3 km/h (3 Bft)
22.10.2010 05:20 5,6 C 74 % 1017,5 hPa 0,0 mm 4,8 km/h (1 Bft) W-SW 247 0 min 0 UV-I 0 W/m 19,3 km/h (3 Bft)
22.10.2010 05:30 5,7 C 75 % 1017,6 hPa 0,0 mm 4,8 km/h (1 Bft) W-SW 247 0 min 0 UV-I 0 W/m 16,1 km/h (3 Bft)
22.10.2010 05:40 5,8 C 75 % 1017,7 hPa 0,0 mm 3,2 km/h (1 Bft) W-SW 247 0 min 0 UV-I 0 W/m 16,1 km/h (3 Bft)
22.10.2010 05:50 5,8 C 75 % 1017,6 hPa 0,0 mm 3,2 km/h (1 Bft) W 270 0 min 0 UV-I 0 W/m 11,3 km/h (2 Bft)
22.10.2010 06:00 5,9 C 75 % 1017,6 hPa 0,0 mm 4,8 km/h (1 Bft) W-SW 247 0 min 0 UV-I 0 W/m 22,5 km/h (4 Bft)
22.10.2010 06:10 6,0 C 75 % 1017,6 hPa 0,0 mm 4,8 km/h (1 Bft) W-SW 247 0 min 0 UV-I 0 W/m 16,1 km/h (3 Bft)
22.10.2010 06:20 6,1 C 75 % 1017,6 hPa 0,0 mm 4,8 km/h (1 Bft) W-SW 247 0 min 0 UV-I 0 W/m 14,5 km/h (3 Bft)
22.10.2010 06:30 6,1 C 75 % 1017,5 hPa 0,0 mm 3,2 km/h (1 Bft) W-SW 247 0 min 0 UV-I 0 W/m 11,3 km/h (2 Bft)
22.10.2010 06:40 6,2 C 76 % 1017,5 hPa 0,0 mm 1,6 km/h (1 Bft) SW 225 0 min 0 UV-I 0 W/m 14,5 km/h (3 Bft)
22.10.2010 06:50 6,2 C 76 % 1017,5 hPa 0,0 mm 1,6 km/h (1 Bft) SW 225 0 min 0 UV-I 0 W/m 9,7 km/h (2 Bft)
22.10.2010 07:00 6,2 C 76 % 1017,5 hPa 0,0 mm 3,2 km/h (1 Bft) SW 225 0 min 0 UV-I 0 W/m 9,7 km/h (2 Bft)
22.10.2010 07:10 6,2 C 77 % 1017,6 hPa 0,0 mm 1,6 km/h (1 Bft) W-SW 247 0 min 0 UV-I 0 W/m 14,5 km/h (3 Bft)
22.10.2010 07:20 6,2 C 77 % 1017,5 hPa 0,0 mm 1,6 km/h (1 Bft) SW 225 0 min 0 UV-I 0 W/m 11,3 km/h (2 Bft)
22.10.2010 07:30 6,2 C 77 % 1017,5 hPa 0,0 mm 1,6 km/h (1 Bft) SW 225 0 min 0 UV-I 0 W/m 9,7 km/h (2 Bft)
22.10.2010 07:40 6,2 C 77 % 1017,6 hPa 0,0 mm 1,6 km/h (1 Bft) W-SW 247 0 min 0 UV-I 0 W/m 6,4 km/h (2 Bft)
22.10.2010 07:50 6,3 C 78 % 1017,7 hPa 0,0 mm 1,6 km/h (1 Bft) S-SW 202 0 min 0 UV-I 0 W/m 9,7 km/h (2 Bft)
22.10.2010 08:00 6,3 C 78 % 1017,8 hPa 0,0 mm 1,2 km/h (1 Bft) W-SW 244 0 min 0 UV-I 0 W/m 4,8 km/h (1 Bft)
22.10.2010 08:10 6,3 C 78 % 1017,9 hPa 0,0 mm 1,6 km/h (1 Bft) S-SW 202 0 min 0 UV-I 0 W/m 11,3 km/h (2 Bft)
22.10.2010 08:20 6,3 C 78 % 1018,0 hPa 0,0 mm 1,6 km/h (1 Bft) SW 225 0 min 0 UV-I 5 W/m 9,7 km/h (2 Bft)
22.10.2010 08:30 6,3 C 78 % 1018,1 hPa 0,0 mm 3,2 km/h (1 Bft) SW 225 0 min 0 UV-I 9 W/m 9,7 km/h (2 Bft)
22.10.2010 08:40 6,3 C 78 % 1018,2 hPa 0,0 mm 3,2 km/h (1 Bft) S-SW 202 0 min 0 UV-I 12 W/m 11,3 km/h (2 Bft)
22.10.2010 08:50 6,4 C 78 % 1018,2 hPa 0,0 mm 3,2 km/h (1 Bft) W-SW 247 0 min 0 UV-I 25 W/m 11,3 km/h (2 Bft)
22.10.2010 09:00 6,5 C 77 % 1018,2 hPa 0,0 mm 4,8 km/h (1 Bft) W-SW 247 0 min 0 UV-I 26 W/m 17,7 km/h (3 Bft)
22.10.2010 09:10 6,6 C 77 % 1018,2 hPa 0,0 mm 4,8 km/h (1 Bft) SW 225 0 min 0 UV-I 28 W/m 16,1 km/h (3 Bft)
22.10.2010 09:20 6,6 C 76 % 1018,4 hPa 0,0 mm 6,4 km/h (2 Bft) W 270 0 min 0 UV-I 51 W/m 19,3 km/h (3 Bft)
22.10.2010 09:30 6,7 C 76 % 1018,4 hPa 0,0 mm 3,2 km/h (1 Bft) W-SW 247 0 min 0 UV-I 51 W/m 14,5 km/h (3 Bft)
22.10.2010 09:40 6,8 C 76 % 1018,4 hPa 0,0 mm 3,2 km/h (1 Bft) S-SW 202 0 min 0 UV-I 33 W/m 19,3 km/h (3 Bft)
22.10.2010 09:50 6,9 C 77 % 1018,4 hPa 0,0 mm 3,2 km/h (1 Bft) W-SW 247 0 min 0 UV-I 33 W/m 14,5 km/h (3 Bft)
22.10.2010 10:00 6,9 C 77 % 1018,4 hPa 0,0 mm 3,2 km/h (1 Bft) W-SW 247 0 min 0 UV-I 67 W/m 11,3 km/h (2 Bft)
22.10.2010 10:10 7,1 C 78 % 1018,4 hPa 0,0 mm 3,2 km/h (1 Bft) SW 225 0 min 1 UV-I 72 W/m 11,3 km/h (2 Bft)
22.10.2010 10:20 7,2 C 78 % 1018,4 hPa 0,0 mm 4,8 km/h (1 Bft) W 270 0 min 1 UV-I 79 W/m 19,3 km/h (3 Bft)
22.10.2010 10:30 7,3 C 78 % 1018,6 hPa 0,0 mm 4,8 km/h (1 Bft) W-SW 247 0 min 1 UV-I 81 W/m 16,1 km/h (3 Bft)
22.10.2010 10:40 7,4 C 78 % 1018,5 hPa 0,0 mm 4,8 km/h (1 Bft) W-SW 247 0 min 1 UV-I 128 W/m 17,7 km/h (3 Bft)
22.10.2010 10:50 7,6 C 77 % 1018,6 hPa 0,0 mm 8,0 km/h (2 Bft) SW 225 0 min 1 UV-I 141 W/m 20,9 km/h (4 Bft)
22.10.2010 11:00 7,8 C 77 % 1018,5 hPa 0,0 mm 4,8 km/h (1 Bft) W-SW 247 0 min 1 UV-I 155 W/m 19,3 km/h (3 Bft)
22.10.2010 11:10 8,0 C 76 % 1018,5 hPa 0,0 mm 6,4 km/h (2 Bft) W 270 0 min 1 UV-I 156 W/m 25,7 km/h (4 Bft)
22.10.2010 11:20 8,2 C 76 % 1018,6 hPa 0,0 mm 6,4 km/h (2 Bft) W 270 0 min 1 UV-I 172 W/m 20,9 km/h (4 Bft)
22.10.2010 11:30 8,4 C 75 % 1018,6 hPa 0,0 mm 6,4 km/h (2 Bft) W-SW 247 0 min 1 UV-I 186 W/m 20,9 km/h (4 Bft)
22.10.2010 11:40 8,6 C 75 % 1018,6 hPa 0,0 mm 6,4 km/h (2 Bft) W 270 0 min 1 UV-I 178 W/m 19,3 km/h (3 Bft)
22.10.2010 11:50 8,7 C 75 % 1018,7 hPa 0,0 mm 4,8 km/h (1 Bft) W-SW 247 0 min 1 UV-I 165 W/m 16,1 km/h (3 Bft)
22.10.2010 12:00 8,9 C 74 % 1018,7 hPa 0,0 mm 4,8 km/h (1 Bft) W-SW 247 10 min 2 UV-I 334 W/m 14,5 km/h (3 Bft)
22.10.2010 12:10 9,3 C 73 % 1018,6 hPa 0,0 mm 8,0 km/h (2 Bft) W-SW 247 10 min 2 UV-I 397 W/m 22,5 km/h (4 Bft)
22.10.2010 12:20 9,5 C 77 % 1018,4 hPa 0,0 mm 8,0 km/h (2 Bft) W-SW 247 10 min 1 UV-I 309 W/m 24,1 km/h (4 Bft)
22.10.2010 12:30 9,6 C 73 % 1018,3 hPa 0,0 mm 9,7 km/h (2 Bft) W 270 10 min 1 UV-I 269 W/m 25,7 km/h (4 Bft)
22.10.2010 12:40 9,6 C 74 % 1018,4 hPa 0,0 mm 8,0 km/h (2 Bft) W 270 0 min 1 UV-I 193 W/m 24,1 km/h (4 Bft)
22.10.2010 12:50 9,7 C 74 % 1018,3 hPa 0,0 mm 8,0 km/h (2 Bft) SW 225 0 min 1 UV-I 209 W/m 19,3 km/h (3 Bft)
22.10.2010 13:00 9,7 C 74 % 1018,5 hPa 0,0 mm 8,0 km/h (2 Bft) W-SW 247 0 min 1 UV-I 195 W/m 20,9 km/h (4 Bft)
22.10.2010 13:10 9,7 C 74 % 1018,3 hPa 0,0 mm 8,0 km/h (2 Bft) W-SW 247 10 min 2 UV-I 306 W/m 20,9 km/h (4 Bft)
22.10.2010 13:20 9,9 C 73 % 1018,3 hPa 0,0 mm 9,7 km/h (2 Bft) W-SW 247 10 min 2 UV-I 318 W/m 25,7 km/h (4 Bft)
22.10.2010 13:30 10,1 C 73 % 1018,2 hPa 0,0 mm 8,0 km/h (2 Bft) W-SW 247 10 min 2 UV-I 288 W/m 20,9 km/h (4 Bft)
22.10.2010 13:40 10,2 C 73 % 1018,0 hPa 0,0 mm 8,0 km/h (2 Bft) W-SW 247 10 min 2 UV-I 279 W/m 24,1 km/h (4 Bft)
22.10.2010 13:50 10,2 C 73 % 1018,0 hPa 0,0 mm 6,4 km/h (2 Bft) W-SW 247 10 min 1 UV-I 253 W/m 19,3 km/h (3 Bft)
22.10.2010 14:00 10,3 C 74 % 1018,0 hPa 0,0 mm 3,2 km/h (1 Bft) W-SW 247 10 min 1 UV-I 258 W/m 14,5 km/h (3 Bft)
22.10.2010 14:10 10,3 C 72 % 1017,9 hPa 0,0 mm 9,7 km/h (2 Bft) W-SW 247 0 min 1 UV-I 227 W/m 27,4 km/h (4 Bft)
22.10.2010 14:20 10,1 C 73 % 1017,8 hPa 0,0 mm 8,0 km/h (2 Bft) W-SW 247 10 min 1 UV-I 239 W/m 22,5 km/h (4 Bft)
22.10.2010 14:30 10,2 C 72 % 1017,6 hPa 0,0 mm 9,7 km/h (2 Bft) W-SW 247 10 min 1 UV-I 241 W/m 19,3 km/h (3 Bft)
22.10.2010 14:40 10,4 C 72 % 1017,6 hPa 0,0 mm 6,4 km/h (2 Bft) W-SW 247 10 min 1 UV-I 244 W/m 14,5 km/h (3 Bft)
22.10.2010 14:50 10,5 C 72 % 1017,6 hPa 0,0 mm 6,4 km/h (2 Bft) SW 225 10 min 1 UV-I 232 W/m 22,5 km/h (4 Bft)
22.10.2010 15:00 10,6 C 72 % 1017,6 hPa 0,0 mm 4,8 km/h (1 Bft) W-SW 247 0 min 1 UV-I 192 W/m 17,7 km/h (3 Bft)
22.10.2010 15:10 10,6 C 71 % 1017,5 hPa 0,0 mm 6,4 km/h (2 Bft) W-SW 247 0 min 1 UV-I 167 W/m 19,3 km/h (3 Bft)
22.10.2010 15:20 10,4 C 72 % 1017,5 hPa 0,0 mm 6,4 km/h (2 Bft) SW 225 0 min 1 UV-I 169 W/m 19,3 km/h (3 Bft)
22.10.2010 15:30 10,3 C 72 % 1017,6 hPa 0,0 mm 4,8 km/h (1 Bft) SW 225 0 min 1 UV-I 109 W/m 17,7 km/h (3 Bft)
22.10.2010 15:40 10,3 C 73 % 1017,7 hPa 0,0 mm 3,2 km/h (1 Bft) SW 225 0 min 1 UV-I 146 W/m 11,3 km/h (2 Bft)
22.10.2010 15:50 10,3 C 72 % 1017,6 hPa 0,0 mm 3,2 km/h (1 Bft) SW 225 0 min 1 UV-I 139 W/m 11,3 km/h (2 Bft)
22.10.2010 16:00 10,3 C 73 % 1017,5 hPa 0,0 mm 2,8 km/h (1 Bft) W-SW 251 0 min 1 UV-I 134 W/m 8,0 km/h (2 Bft)
22.10.2010 16:10 10,3 C 72 % 1017,6 hPa 0,0 mm 4,8 km/h (1 Bft) W-SW 247 0 min 1 UV-I 134 W/m 19,3 km/h (3 Bft)
22.10.2010 16:20 10,4 C 72 % 1017,4 hPa 0,0 mm 4,8 km/h (1 Bft) SW 225 10 min 1 UV-I 169 W/m 16,1 km/h (3 Bft)
22.10.2010 16:30 10,5 C 71 % 1017,4 hPa 0,0 mm 4,8 km/h (1 Bft) SW 225 10 min 1 UV-I 163 W/m 14,5 km/h (3 Bft)
22.10.2010 16:40 10,3 C 71 % 1017,6 hPa 0,0 mm 6,4 km/h (2 Bft) SW 225 0 min 1 UV-I 105 W/m 19,3 km/h (3 Bft)
22.10.2010 16:50 10,2 C 71 % 1017,7 hPa 0,0 mm 6,4 km/h (2 Bft) W-SW 247 0 min 0 UV-I 93 W/m 19,3 km/h (3 Bft)
22.10.2010 17:00 10,0 C 72 % 1017,6 hPa 0,0 mm 6,4 km/h (2 Bft) W-SW 247 0 min 0 UV-I 60 W/m 14,5 km/h (3 Bft)
22.10.2010 17:10 9,9 C 73 % 1017,6 hPa 0,0 mm 6,4 km/h (2 Bft) W-SW 247 10 min 0 UV-I 90 W/m 16,1 km/h (3 Bft)
22.10.2010 17:20 9,8 C 73 % 1017,6 hPa 0,0 mm 6,4 km/h (2 Bft) SW 225 10 min 0 UV-I 120 W/m 19,3 km/h (3 Bft)
22.10.2010 17:30 9,8 C 73 % 1017,5 hPa 0,0 mm 4,8 km/h (1 Bft) SW 225 10 min 0 UV-I 70 W/m 16,1 km/h (3 Bft)
22.10.2010 17:40 9,6 C 74 % 1017,6 hPa 0,0 mm 1,6 km/h (1 Bft) S-SW 202 10 min 0 UV-I 47 W/m 8,0 km/h (2 Bft)
22.10.2010 17:50 9,5 C 74 % 1017,6 hPa 0,0 mm 3,2 km/h (1 Bft) W-SW 247 10 min 0 UV-I 37 W/m 9,7 km/h (2 Bft)
22.10.2010 18:00 9,4 C 74 % 1017,4 hPa 0,0 mm 1,6 km/h (1 Bft) W-SW 247 10 min 0 UV-I 28 W/m 9,7 km/h (2 Bft)
22.10.2010 18:10 9,3 C 74 % 1017,5 hPa 0,0 mm 1,6 km/h (1 Bft) SW 225 0 min 0 UV-I 23 W/m 6,4 km/h (2 Bft)
22.10.2010 18:20 9,2 C 74 % 1017,4 hPa 0,0 mm 1,6 km/h (1 Bft) W-SW 247 0 min 0 UV-I 7 W/m 8,0 km/h (2 Bft)
22.10.2010 18:30 8,9 C 74 % 1017,4 hPa 0,0 mm 1,6 km/h (1 Bft) S-SW 202 0 min 0 UV-I 0 W/m 6,4 km/h (2 Bft)
22.10.2010 18:40 8,7 C 75 % 1017,4 hPa 0,0 mm 1,6 km/h (1 Bft) S-SW 202 0 min 0 UV-I 0 W/m 8,0 km/h (2 Bft)
22.10.2010 18:50 8,5 C 75 % 1017,4 hPa 0,0 mm 1,6 km/h (1 Bft) W-SW 247 0 min 0 UV-I 0 W/m 8,0 km/h (2 Bft)
22.10.2010 19:00 8,3 C 75 % 1017,4 hPa 0,0 mm 1,6 km/h (1 Bft) S-SW 202 0 min 0 UV-I 0 W/m 6,4 km/h (2 Bft)
22.10.2010 19:10 8,1 C 76 % 1017,4 hPa 0,0 mm 1,6 km/h (1 Bft) S-SW 202 0 min 0 UV-I 0 W/m 6,4 km/h (2 Bft)
22.10.2010 19:20 7,8 C 76 % 1017,4 hPa 0,0 mm 1,6 km/h (1 Bft) SW 225 0 min 0 UV-I 0 W/m 9,7 km/h (2 Bft)
22.10.2010 19:30 7,6 C 77 % 1017,2 hPa 0,0 mm 1,6 km/h (1 Bft) S-SW 202 0 min 0 UV-I 0 W/m 8,0 km/h (2 Bft)
22.10.2010 19:40 7,3 C 78 % 1017,2 hPa 0,0 mm 1,6 km/h (1 Bft) S-SW 202 0 min 0 UV-I 0 W/m 8,0 km/h (2 Bft)
22.10.2010 19:50 7,2 C 79 % 1017,4 hPa 0,0 mm 1,6 km/h (1 Bft) S-SW 202 0 min 0 UV-I 0 W/m 8,0 km/h (2 Bft)
22.10.2010 20:00 7,1 C 79 % 1017,4 hPa 0,0 mm 1,6 km/h (1 Bft) S-SW 202 0 min 0 UV-I 0 W/m 8,0 km/h (2 Bft)
22.10.2010 20:10 7,1 C 79 % 1017,3 hPa 0,0 mm 1,6 km/h (1 Bft) S-SW 202 0 min 0 UV-I 0 W/m 9,7 km/h (2 Bft)
22.10.2010 20:20 7,0 C 80 % 1017,4 hPa 0,0 mm 1,6 km/h (1 Bft) SW 225 0 min 0 UV-I 0 W/m 4,8 km/h (1 Bft)
22.10.2010 20:30 6,9 C 79 % 1017,3 hPa 0,0 mm 0,0 km/h (0 Bft) SW 225 0 min 0 UV-I 0 W/m 4,8 km/h (1 Bft)
22.10.2010 20:40 6,9 C 79 % 1017,2 hPa 0,0 mm 0,0 km/h (0 Bft) S-SW 202 0 min 0 UV-I 0 W/m 4,8 km/h (1 Bft)
22.10.2010 20:50 6,8 C 79 % 1017,2 hPa 0,0 mm 0,0 km/h (0 Bft) W-SW 247 0 min 0 UV-I 0 W/m 4,8 km/h (1 Bft)
22.10.2010 21:00 6,7 C 80 % 1017,1 hPa 0,0 mm 0,0 km/h (0 Bft) SW 225 0 min 0 UV-I 0 W/m 3,2 km/h (1 Bft)
22.10.2010 21:10 6,6 C 79 % 1017,0 hPa 0,0 mm 0,0 km/h (0 Bft) S-SW 202 0 min 0 UV-I 0 W/m 3,2 km/h (1 Bft)
22.10.2010 21:20 6,4 C 80 % 1017,1 hPa 0,0 mm 0,0 km/h (0 Bft) S-SW 202 0 min 0 UV-I 0 W/m 6,4 km/h (2 Bft)
22.10.2010 21:30 6,3 C 80 % 1017,1 hPa 0,0 mm 0,0 km/h (0 Bft) S 180 0 min 0 UV-I 0 W/m 4,8 km/h (1 Bft)
22.10.2010 21:40 6,1 C 80 % 1017,1 hPa 0,0 mm 0,0 km/h (0 Bft) N 0 0 min 0 UV-I 0 W/m 0,0 km/h (0 Bft)
22.10.2010 21:50 5,9 C 80 % 1017,1 hPa 0,0 mm 0,0 km/h (0 Bft) N 0 0 min 0 UV-I 0 W/m 0,0 km/h (0 Bft)
22.10.2010 22:00 5,8 C 80 % 1017,2 hPa 0,0 mm 0,0 km/h (0 Bft) N 0 0 min 0 UV-I 0 W/m 0,0 km/h (0 Bft)
22.10.2010 22:10 5,7 C 80 % 1017,1 hPa 0,0 mm 0,0 km/h (0 Bft) N 0 0 min 0 UV-I 0 W/m 0,0 km/h (0 Bft)
22.10.2010 22:20 5,6 C 81 % 1017,0 hPa 0,0 mm 0,0 km/h (0 Bft) N 0 0 min 0 UV-I 0 W/m 0,0 km/h (0 Bft)
22.10.2010 22:30 5,4 C 81 % 1017,0 hPa 0,0 mm 0,0 km/h (0 Bft) S 180 0 min 0 UV-I 0 W/m 1,6 km/h (1 Bft)
22.10.2010 22:40 5,3 C 81 % 1017,0 hPa 0,0 mm 0,0 km/h (0 Bft) S 180 0 min 0 UV-I 0 W/m 1,6 km/h (1 Bft)
22.10.2010 22:50 5,2 C 82 % 1017,0 hPa 0,0 mm 0,0 km/h (0 Bft) N 0 0 min 0 UV-I 0 W/m 0,0 km/h (0 Bft)
22.10.2010 23:00 5,1 C 81 % 1016,8 hPa 0,0 mm 0,0 km/h (0 Bft) N 0 0 min 0 UV-I 0 W/m 0,0 km/h (0 Bft)
22.10.2010 23:10 4,9 C 81 % 1016,8 hPa 0,0 mm 0,0 km/h (0 Bft) N 0 0 min 0 UV-I 0 W/m 0,0 km/h (0 Bft)
22.10.2010 23:20 4,7 C 81 % 1016,7 hPa 0,0 mm 0,0 km/h (0 Bft) N 0 0 min 0 UV-I 0 W/m 0,0 km/h (0 Bft)
22.10.2010 23:30 4,5 C 81 % 1016,7 hPa 0,0 mm 0,0 km/h (0 Bft) N 0 0 min 0 UV-I 0 W/m 0,0 km/h (0 Bft)
22.10.2010 23:40 4,3 C 81 % 1016,7 hPa 0,0 mm 0,0 km/h (0 Bft) N 0 0 min 0 UV-I 0 W/m 0,0 km/h (0 Bft)
22.10.2010 23:50 4,1 C 82 % 1016,6 hPa 0,0 mm 0,0 km/h (0 Bft) S 180 0 min 0 UV-I 0 W/m 1,6 km/h (1 Bft)
_ Min-Zeit 23:50 15:10 23:50 - 20:30 - - - - - 21:40
Minimum _ 3,9 C 71 % 1016,6 hPa - 0,0 km/h (0 Bft) - - - - - 0,0 km/h (0 Bft)
_ Max-Zeit 14:50 22:50 00:00 00:00 12:30 - - 12:00 12:10 12:10 14:10
Maximum _ 10,6 C 82 % 1020,4 hPa 0,0 mm 9,7 km/h
W (2 Bft)
- - 10 min 2 UV-I 397 W/m 27,4 km/h
W-SW (4 Bft)
Durchschnitt _ 7,1 C 75 % 1018,0 hPa #0,0 mm 3,8 km/h (1 Bft) W-SW - #3:40 h 1 UV-I 145 W/m 13,3 km/h (3 Bft)